KDYL

Details ICAO KDYL
Name Doylestown Airport
Region United States
Timezone America/New_York (UTC-4.0)
Plans Departing 18
Arriving 12
Stats Elevation 394 ft / 120 m (AMSL)
Location 40.333132° -75.122403°
Runways 1
Magnetic Variation 12.220° W
Sunrise 2018-05-27 09:36:43 UTC / 2018-05-27 05:36:43 Local
Sunset 2018-05-28 00:21:30 UTC / 2018-05-27 20:21:30 Local
Advertisement - Login to hide

Runways

ID Width Length Bearing (true) Bearing (mag) Surface Threshold Offset Overrun Length
05 57 ft / 17 m 2,696 ft / 822 m 38.63° 50.85° Asphalt 0 ft / 0 m 0 ft / 0 m
23 57 ft / 17 m 2,696 ft / 822 m 218.63° 230.85° Asphalt 0 ft / 0 m 0 ft / 0 m

Map

Weather


0- 5 10 15 20 25 30 35+ Temperature / ° C

Clouds and Precipitation
Forecast for 2018-05-27 12:00 UTC. Updated an hour ago

Ground ~20,000 ft ~40,000 ft Winds

METAR

KDYL 271222Z AUTO VRB04KT 4SM RA BR OVC006 17/17 A2995 RMK AO2 LTG DSNT SW P0006 T01720172

TAF

Not found

Frequencies

Recorded 118.87 MHz ASOS
Clearance 118.55 MHz CLNC DEL
Unicom 122.97 MHz CTAF/UNICOM
Approach 123.80 MHz PHILADELPHIA APP/DEP
Warning: Do not use this data for real-world aviation or navigation. No guarantee of current accuracy is given.